sensor_id;sensor_type;location;lat;lon;timestamp;P1;durP1;ratioP1;P2;durP2;ratioP2
40154;SDS011;25875;48.202;16.334;2023-03-05T00:01:56;18.23;;;13.23;;
40154;SDS011;25875;48.202;16.334;2023-03-05T00:04:23;18.55;;;13.73;;
40154;SDS011;25875;48.202;16.334;2023-03-05T00:06:50;16.80;;;12.95;;
40154;SDS011;25875;48.202;16.334;2023-03-05T00:09:17;18.35;;;12.02;;
40154;SDS011;25875;48.202;16.334;2023-03-05T00:11:45;19.52;;;13.10;;
40154;SDS011;25875;48.202;16.334;2023-03-05T00:14:12;16.05;;;12.23;;
40154;SDS011;25875;48.202;16.334;2023-03-05T00:16:39;18.83;;;13.48;;
40154;SDS011;25875;48.202;16.334;2023-03-05T00:19:06;18.98;;;11.55;;
40154;SDS011;25875;48.202;16.334;2023-03-05T00:21:34;16.98;;;13.27;;
40154;SDS011;25875;48.202;16.334;2023-03-05T00:24:04;19.83;;;13.25;;
40154;SDS011;25875;48.202;16.334;2023-03-05T00:26:33;17.80;;;12.60;;
40154;SDS011;25875;48.202;16.334;2023-03-05T00:29:04;16.80;;;12.13;;
40154;SDS011;25875;48.202;16.334;2023-03-05T00:31:32;23.95;;;13.85;;
40154;SDS011;25875;48.202;16.334;2023-03-05T00:34:01;17.75;;;13.43;;
40154;SDS011;25875;48.202;16.334;2023-03-05T00:36:29;17.90;;;12.55;;
40154;SDS011;25875;48.202;16.334;2023-03-05T00:38:57;16.90;;;13.02;;
40154;SDS011;25875;48.202;16.334;2023-03-05T00:41:24;20.10;;;14.45;;
40154;SDS011;25875;48.202;16.334;2023-03-05T00:43:51;17.40;;;13.80;;
40154;SDS011;25875;48.202;16.334;2023-03-05T00:46:19;16.52;;;12.43;;
40154;SDS011;25875;48.202;16.334;2023-03-05T00:48:46;19.30;;;13.13;;
40154;SDS011;25875;48.202;16.334;2023-03-05T00:51:12;18.08;;;12.00;;
40154;SDS011;25875;48.202;16.334;2023-03-05T00:53:39;17.23;;;13.10;;
40154;SDS011;25875;48.202;16.334;2023-03-05T00:56:06;15.60;;;11.70;;
40154;SDS011;25875;48.202;16.334;2023-03-05T00:58:33;20.80;;;14.02;;
40154;SDS011;25875;48.202;16.334;2023-03-05T01:01:00;17.90;;;12.95;;
40154;SDS011;25875;48.202;16.334;2023-03-05T01:03:29;17.25;;;13.57;;
40154;SDS011;25875;48.202;16.334;2023-03-05T01:05:56;16.45;;;13.32;;
40154;SDS011;25875;48.202;16.334;2023-03-05T01:08:23;16.40;;;11.57;;
40154;SDS011;25875;48.202;16.334;2023-03-05T01:10:50;15.23;;;11.68;;
40154;SDS011;25875;48.202;16.334;2023-03-05T01:13:17;16.73;;;12.15;;
40154;SDS011;25875;48.202;16.334;2023-03-05T01:15:44;17.70;;;12.32;;
40154;SDS011;25875;48.202;16.334;2023-03-05T01:18:12;15.02;;;11.68;;
40154;SDS011;25875;48.202;16.334;2023-03-05T01:20:41;15.35;;;11.88;;
40154;SDS011;25875;48.202;16.334;2023-03-05T01:23:08;15.43;;;12.68;;
40154;SDS011;25875;48.202;16.334;2023-03-05T01:25:35;15.20;;;12.45;;
40154;SDS011;25875;48.202;16.334;2023-03-05T01:28:02;18.67;;;12.07;;
40154;SDS011;25875;48.202;16.334;2023-03-05T01:30:29;16.33;;;11.52;;
40154;SDS011;25875;48.202;16.334;2023-03-05T01:32:56;17.40;;;11.75;;
40154;SDS011;25875;48.202;16.334;2023-03-05T01:35:23;17.13;;;12.18;;
40154;SDS011;25875;48.202;16.334;2023-03-05T01:37:52;17.25;;;11.98;;
40154;SDS011;25875;48.202;16.334;2023-03-05T01:40:20;16.77;;;13.05;;
40154;SDS011;25875;48.202;16.334;2023-03-05T01:42:54;17.00;;;11.52;;
40154;SDS011;25875;48.202;16.334;2023-03-05T01:45:23;16.92;;;11.40;;
40154;SDS011;25875;48.202;16.334;2023-03-05T01:47:50;16.38;;;11.45;;
40154;SDS011;25875;48.202;16.334;2023-03-05T01:50:17;15.88;;;12.07;;
40154;SDS011;25875;48.202;16.334;2023-03-05T01:52:48;19.00;;;12.80;;
40154;SDS011;25875;48.202;16.334;2023-03-05T01:55:21;16.63;;;11.88;;
40154;SDS011;25875;48.202;16.334;2023-03-05T01:57:50;16.45;;;11.82;;
40154;SDS011;25875;48.202;16.334;2023-03-05T02:00:21;16.95;;;11.95;;
40154;SDS011;25875;48.202;16.334;2023-03-05T02:02:51;16.67;;;12.55;;
40154;SDS011;25875;48.202;16.334;2023-03-05T02:05:19;17.25;;;12.88;;
40154;SDS011;25875;48.202;16.334;2023-03-05T02:07:51;16.55;;;12.43;;
40154;SDS011;25875;48.202;16.334;2023-03-05T02:10:21;16.52;;;12.10;;
40154;SDS011;25875;48.202;16.334;2023-03-05T02:12:50;16.38;;;11.15;;
40154;SDS011;25875;48.202;16.334;2023-03-05T02:15:19;16.58;;;11.95;;
40154;SDS011;25875;48.202;16.334;2023-03-05T02:17:47;16.95;;;11.52;;
40154;SDS011;25875;48.202;16.334;2023-03-05T02:20:14;15.02;;;11.68;;
40154;SDS011;25875;48.202;16.334;2023-03-05T02:22:46;17.05;;;11.90;;
40154;SDS011;25875;48.202;16.334;2023-03-05T02:25:14;17.00;;;11.45;;
40154;SDS011;25875;48.202;16.334;2023-03-05T02:27:43;16.02;;;12.23;;
40154;SDS011;25875;48.202;16.334;2023-03-05T02:30:16;17.33;;;11.52;;
40154;SDS011;25875;48.202;16.334;2023-03-05T02:32:44;14.32;;;11.27;;
40154;SDS011;25875;48.202;16.334;2023-03-05T02:35:10;14.27;;;11.02;;
40154;SDS011;25875;48.202;16.334;2023-03-05T02:37:37;17.40;;;13.52;;
40154;SDS011;25875;48.202;16.334;2023-03-05T02:40:10;17.05;;;11.85;;
40154;SDS011;25875;48.202;16.334;2023-03-05T02:42:38;15.65;;;13.18;;
40154;SDS011;25875;48.202;16.334;2023-03-05T02:45:06;16.33;;;11.00;;
40154;SDS011;25875;48.202;16.334;2023-03-05T02:47:33;17.80;;;14.13;;
40154;SDS011;25875;48.202;16.334;2023-03-05T02:50:00;17.05;;;12.25;;
40154;SDS011;25875;48.202;16.334;2023-03-05T02:52:27;14.95;;;11.23;;
40154;SDS011;25875;48.202;16.334;2023-03-05T02:54:55;16.48;;;11.98;;
40154;SDS011;25875;48.202;16.334;2023-03-05T02:57:23;15.75;;;12.10;;
40154;SDS011;25875;48.202;16.334;2023-03-05T02:59:50;16.98;;;12.10;;
40154;SDS011;25875;48.202;16.334;2023-03-05T03:02:17;15.25;;;11.80;;
40154;SDS011;25875;48.202;16.334;2023-03-05T03:04:44;17.60;;;12.52;;
40154;SDS011;25875;48.202;16.334;2023-03-05T03:07:11;15.60;;;12.32;;
40154;SDS011;25875;48.202;16.334;2023-03-05T03:09:39;18.23;;;12.05;;
40154;SDS011;25875;48.202;16.334;2023-03-05T03:12:07;16.27;;;11.80;;
40154;SDS011;25875;48.202;16.334;2023-03-05T03:14:36;17.60;;;12.88;;
40154;SDS011;25875;48.202;16.334;2023-03-05T03:17:05;15.80;;;11.75;;
40154;SDS011;25875;48.202;16.334;2023-03-05T03:19:32;16.50;;;12.35;;
40154;SDS011;25875;48.202;16.334;2023-03-05T03:21:59;17.27;;;12.60;;
40154;SDS011;25875;48.202;16.334;2023-03-05T03:24:25;15.88;;;12.05;;
40154;SDS011;25875;48.202;16.334;2023-03-05T03:26:52;15.52;;;12.95;;
40154;SDS011;25875;48.202;16.334;2023-03-05T03:29:19;15.43;;;12.75;;
40154;SDS011;25875;48.202;16.334;2023-03-05T03:31:47;15.10;;;11.88;;
40154;SDS011;25875;48.202;16.334;2023-03-05T03:34:14;15.77;;;13.02;;
40154;SDS011;25875;48.202;16.334;2023-03-05T03:36:42;17.02;;;12.93;;
40154;SDS011;25875;48.202;16.334;2023-03-05T03:39:09;14.32;;;11.52;;
40154;SDS011;25875;48.202;16.334;2023-03-05T03:41:40;16.52;;;12.88;;
40154;SDS011;25875;48.202;16.334;2023-03-05T03:44:07;14.60;;;11.60;;
40154;SDS011;25875;48.202;16.334;2023-03-05T03:46:35;15.52;;;11.90;;
40154;SDS011;25875;48.202;16.334;2023-03-05T03:49:03;15.07;;;11.32;;
40154;SDS011;25875;48.202;16.334;2023-03-05T03:51:31;18.50;;;11.82;;
40154;SDS011;25875;48.202;16.334;2023-03-05T03:53:58;15.75;;;11.60;;
40154;SDS011;25875;48.202;16.334;2023-03-05T03:56:24;13.90;;;11.98;;
40154;SDS011;25875;48.202;16.334;2023-03-05T03:58:53;15.32;;;11.30;;
40154;SDS011;25875;48.202;16.334;2023-03-05T04:01:20;14.75;;;10.70;;
40154;SDS011;25875;48.202;16.334;2023-03-05T04:03:46;16.15;;;12.02;;
40154;SDS011;25875;48.202;16.334;2023-03-05T04:06:15;15.50;;;12.00;;
40154;SDS011;25875;48.202;16.334;2023-03-05T04:08:41;16.10;;;11.80;;
40154;SDS011;25875;48.202;16.334;2023-03-05T04:11:08;15.15;;;11.52;;
40154;SDS011;25875;48.202;16.334;2023-03-05T04:13:35;14.65;;;10.68;;
40154;SDS011;25875;48.202;16.334;2023-03-05T04:16:02;16.42;;;12.38;;
40154;SDS011;25875;48.202;16.334;2023-03-05T04:18:28;14.32;;;11.88;;
40154;SDS011;25875;48.202;16.334;2023-03-05T04:20:55;13.13;;;10.90;;
40154;SDS011;25875;48.202;16.334;2023-03-05T04:23:23;15.05;;;11.75;;
40154;SDS011;25875;48.202;16.334;2023-03-05T04:25:50;12.93;;;10.38;;
40154;SDS011;25875;48.202;16.334;2023-03-05T04:28:17;16.55;;;12.18;;
40154;SDS011;25875;48.202;16.334;2023-03-05T04:30:44;16.77;;;12.88;;
40154;SDS011;25875;48.202;16.334;2023-03-05T04:33:10;15.77;;;12.32;;
40154;SDS011;25875;48.202;16.334;2023-03-05T04:35:37;17.83;;;12.27;;
40154;SDS011;25875;48.202;16.334;2023-03-05T04:38:04;15.82;;;11.27;;
40154;SDS011;25875;48.202;16.334;2023-03-05T04:40:32;17.35;;;12.73;;
40154;SDS011;25875;48.202;16.334;2023-03-05T04:42:59;17.38;;;12.73;;
40154;SDS011;25875;48.202;16.334;2023-03-05T04:45:26;16.92;;;12.80;;
40154;SDS011;25875;48.202;16.334;2023-03-05T04:47:53;16.80;;;12.23;;
40154;SDS011;25875;48.202;16.334;2023-03-05T04:50:20;17.33;;;12.07;;
40154;SDS011;25875;48.202;16.334;2023-03-05T04:52:47;16.60;;;12.15;;
40154;SDS011;25875;48.202;16.334;2023-03-05T04:55:14;16.75;;;13.02;;
40154;SDS011;25875;48.202;16.334;2023-03-05T04:57:43;16.00;;;11.80;;
40154;SDS011;25875;48.202;16.334;2023-03-05T05:00:11;15.90;;;12.57;;
40154;SDS011;25875;48.202;16.334;2023-03-05T05:02:40;16.75;;;12.05;;
40154;SDS011;25875;48.202;16.334;2023-03-05T05:05:07;17.33;;;12.73;;
40154;SDS011;25875;48.202;16.334;2023-03-05T05:07:35;15.13;;;12.13;;
40154;SDS011;25875;48.202;16.334;2023-03-05T05:10:02;17.63;;;12.88;;
40154;SDS011;25875;48.202;16.334;2023-03-05T05:12:29;16.27;;;12.02;;
40154;SDS011;25875;48.202;16.334;2023-03-05T05:14:57;18.42;;;13.10;;
40154;SDS011;25875;48.202;16.334;2023-03-05T05:17:25;15.30;;;11.85;;
40154;SDS011;25875;48.202;16.334;2023-03-05T05:19:55;15.48;;;12.40;;
40154;SDS011;25875;48.202;16.334;2023-03-05T05:22:21;17.33;;;12.20;;
40154;SDS011;25875;48.202;16.334;2023-03-05T05:24:48;15.15;;;11.77;;
40154;SDS011;25875;48.202;16.334;2023-03-05T05:27:15;16.17;;;13.23;;
40154;SDS011;25875;48.202;16.334;2023-03-05T05:29:42;16.00;;;13.15;;
40154;SDS011;25875;48.202;16.334;2023-03-05T05:32:11;16.27;;;11.73;;
40154;SDS011;25875;48.202;16.334;2023-03-05T05:34:38;15.40;;;11.75;;
40154;SDS011;25875;48.202;16.334;2023-03-05T05:37:05;16.77;;;12.65;;
40154;SDS011;25875;48.202;16.334;2023-03-05T05:39:31;14.98;;;12.13;;
40154;SDS011;25875;48.202;16.334;2023-03-05T05:41:58;20.05;;;12.52;;
40154;SDS011;25875;48.202;16.334;2023-03-05T05:44:25;15.43;;;12.57;;
40154;SDS011;25875;48.202;16.334;2023-03-05T05:46:52;15.38;;;11.80;;
40154;SDS011;25875;48.202;16.334;2023-03-05T05:49:20;15.35;;;12.10;;
40154;SDS011;25875;48.202;16.334;2023-03-05T05:51:47;15.95;;;12.07;;
40154;SDS011;25875;48.202;16.334;2023-03-05T05:54:14;15.05;;;11.57;;
40154;SDS011;25875;48.202;16.334;2023-03-05T05:56:41;15.55;;;11.13;;
40154;SDS011;25875;48.202;16.334;2023-03-05T05:59:08;14.88;;;11.82;;
40154;SDS011;25875;48.202;16.334;2023-03-05T06:01:36;16.55;;;12.63;;
40154;SDS011;25875;48.202;16.334;2023-03-05T06:04:03;18.55;;;13.15;;
40154;SDS011;25875;48.202;16.334;2023-03-05T06:06:31;16.13;;;12.60;;
40154;SDS011;25875;48.202;16.334;2023-03-05T06:08:59;15.45;;;12.40;;
40154;SDS011;25875;48.202;16.334;2023-03-05T06:11:25;16.60;;;12.18;;
40154;SDS011;25875;48.202;16.334;2023-03-05T06:13:52;17.95;;;11.93;;
40154;SDS011;25875;48.202;16.334;2023-03-05T06:16:20;14.45;;;10.93;;
40154;SDS011;25875;48.202;16.334;2023-03-05T06:18:48;14.77;;;10.68;;
40154;SDS011;25875;48.202;16.334;2023-03-05T06:21:16;15.88;;;11.50;;
40154;SDS011;25875;48.202;16.334;2023-03-05T06:23:46;18.27;;;12.23;;
40154;SDS011;25875;48.202;16.334;2023-03-05T06:26:14;17.10;;;12.23;;
40154;SDS011;25875;48.202;16.334;2023-03-05T06:28:43;18.02;;;12.63;;
40154;SDS011;25875;48.202;16.334;2023-03-05T06:31:10;17.08;;;11.85;;
40154;SDS011;25875;48.202;16.334;2023-03-05T06:33:38;16.13;;;11.23;;
40154;SDS011;25875;48.202;16.334;2023-03-05T06:36:07;17.13;;;12.75;;
40154;SDS011;25875;48.202;16.334;2023-03-05T06:38:36;15.45;;;12.13;;
40154;SDS011;25875;48.202;16.334;2023-03-05T06:41:05;15.90;;;11.07;;
40154;SDS011;25875;48.202;16.334;2023-03-05T06:43:35;16.45;;;12.20;;
40154;SDS011;25875;48.202;16.334;2023-03-05T06:46:03;15.88;;;11.73;;
40154;SDS011;25875;48.202;16.334;2023-03-05T06:48:31;17.88;;;13.23;;
40154;SDS011;25875;48.202;16.334;2023-03-05T06:50:58;16.52;;;12.40;;
40154;SDS011;25875;48.202;16.334;2023-03-05T06:53:25;17.45;;;12.73;;
40154;SDS011;25875;48.202;16.334;2023-03-05T06:55:52;14.73;;;11.80;;
40154;SDS011;25875;48.202;16.334;2023-03-05T06:58:21;15.13;;;11.82;;
40154;SDS011;25875;48.202;16.334;2023-03-05T07:00:48;17.45;;;14.23;;
40154;SDS011;25875;48.202;16.334;2023-03-05T07:03:15;18.77;;;13.57;;
40154;SDS011;25875;48.202;16.334;2023-03-05T07:05:42;19.83;;;13.35;;
40154;SDS011;25875;48.202;16.334;2023-03-05T07:08:09;20.75;;;14.63;;
40154;SDS011;25875;48.202;16.334;2023-03-05T07:10:36;18.58;;;13.95;;
40154;SDS011;25875;48.202;16.334;2023-03-05T07:13:04;17.48;;;14.00;;
40154;SDS011;25875;48.202;16.334;2023-03-05T07:15:33;20.13;;;14.40;;
40154;SDS011;25875;48.202;16.334;2023-03-05T07:18:02;21.58;;;15.23;;
40154;SDS011;25875;48.202;16.334;2023-03-05T07:20:29;23.90;;;14.73;;
40154;SDS011;25875;48.202;16.334;2023-03-05T07:22:56;18.60;;;14.77;;
40154;SDS011;25875;48.202;16.334;2023-03-05T07:25:23;20.42;;;15.40;;
40154;SDS011;25875;48.202;16.334;2023-03-05T07:27:50;22.70;;;15.60;;
40154;SDS011;25875;48.202;16.334;2023-03-05T07:30:17;18.60;;;14.40;;
40154;SDS011;25875;48.202;16.334;2023-03-05T07:32:46;19.85;;;14.70;;
40154;SDS011;25875;48.202;16.334;2023-03-05T07:35:12;18.27;;;13.55;;
40154;SDS011;25875;48.202;16.334;2023-03-05T07:37:39;20.02;;;13.68;;
40154;SDS011;25875;48.202;16.334;2023-03-05T07:40:06;20.60;;;14.27;;
40154;SDS011;25875;48.202;16.334;2023-03-05T07:42:34;17.20;;;12.38;;
40154;SDS011;25875;48.202;16.334;2023-03-05T07:45:01;19.73;;;13.65;;
40154;SDS011;25875;48.202;16.334;2023-03-05T07:47:28;21.48;;;13.90;;
40154;SDS011;25875;48.202;16.334;2023-03-05T07:49:57;20.52;;;12.63;;
40154;SDS011;25875;48.202;16.334;2023-03-05T07:52:24;18.52;;;12.95;;
40154;SDS011;25875;48.202;16.334;2023-03-05T07:54:50;18.02;;;13.95;;
40154;SDS011;25875;48.202;16.334;2023-03-05T07:57:17;17.65;;;14.55;;
40154;SDS011;25875;48.202;16.334;2023-03-05T07:59:44;16.85;;;13.00;;
40154;SDS011;25875;48.202;16.334;2023-03-05T08:02:11;17.60;;;14.15;;
40154;SDS011;25875;48.202;16.334;2023-03-05T08:04:38;16.17;;;12.85;;
40154;SDS011;25875;48.202;16.334;2023-03-05T08:07:08;17.45;;;13.27;;
40154;SDS011;25875;48.202;16.334;2023-03-05T08:09:35;17.42;;;12.93;;
40154;SDS011;25875;48.202;16.334;2023-03-05T08:12:02;16.30;;;12.68;;
40154;SDS011;25875;48.202;16.334;2023-03-05T08:14:29;17.75;;;14.07;;
40154;SDS011;25875;48.202;16.334;2023-03-05T08:16:55;16.73;;;13.15;;
40154;SDS011;25875;48.202;16.334;2023-03-05T08:19:22;17.60;;;14.52;;
40154;SDS011;25875;48.202;16.334;2023-03-05T08:21:49;18.00;;;15.70;;
40154;SDS011;25875;48.202;16.334;2023-03-05T08:24:17;15.05;;;11.93;;
40154;SDS011;25875;48.202;16.334;2023-03-05T08:26:44;20.73;;;14.05;;
40154;SDS011;25875;48.202;16.334;2023-03-05T08:29:11;18.48;;;14.35;;
40154;SDS011;25875;48.202;16.334;2023-03-05T08:31:38;19.15;;;14.40;;
40154;SDS011;25875;48.202;16.334;2023-03-05T08:34:05;18.85;;;14.20;;
40154;SDS011;25875;48.202;16.334;2023-03-05T08:36:32;19.73;;;15.13;;
40154;SDS011;25875;48.202;16.334;2023-03-05T08:38:59;18.60;;;14.15;;
40154;SDS011;25875;48.202;16.334;2023-03-05T08:41:27;20.17;;;15.07;;
40154;SDS011;25875;48.202;16.334;2023-03-05T08:43:54;18.08;;;13.57;;
40154;SDS011;25875;48.202;16.334;2023-03-05T08:46:21;17.05;;;12.88;;
40154;SDS011;25875;48.202;16.334;2023-03-05T08:48:49;17.63;;;13.55;;
40154;SDS011;25875;48.202;16.334;2023-03-05T08:51:16;17.55;;;14.13;;
40154;SDS011;25875;48.202;16.334;2023-03-05T08:53:45;19.77;;;15.00;;
40154;SDS011;25875;48.202;16.334;2023-03-05T08:56:12;18.15;;;14.63;;
40154;SDS011;25875;48.202;16.334;2023-03-05T08:58:41;21.70;;;15.15;;
40154;SDS011;25875;48.202;16.334;2023-03-05T09:01:10;21.75;;;14.50;;
40154;SDS011;25875;48.202;16.334;2023-03-05T09:03:37;18.23;;;13.93;;
40154;SDS011;25875;48.202;16.334;2023-03-05T09:06:05;18.33;;;14.60;;
40154;SDS011;25875;48.202;16.334;2023-03-05T09:08:34;19.63;;;15.43;;
40154;SDS011;25875;48.202;16.334;2023-03-05T09:11:02;19.60;;;14.88;;
40154;SDS011;25875;48.202;16.334;2023-03-05T09:13:30;17.75;;;14.40;;
40154;SDS011;25875;48.202;16.334;2023-03-05T09:16:00;20.15;;;16.00;;
40154;SDS011;25875;48.202;16.334;2023-03-05T09:18:28;20.25;;;14.80;;
40154;SDS011;25875;48.202;16.334;2023-03-05T09:20:55;20.30;;;15.00;;
40154;SDS011;25875;48.202;16.334;2023-03-05T09:23:22;19.13;;;14.95;;
40154;SDS011;25875;48.202;16.334;2023-03-05T09:25:49;18.92;;;14.45;;
40154;SDS011;25875;48.202;16.334;2023-03-05T09:28:16;18.67;;;14.35;;
40154;SDS011;25875;48.202;16.334;2023-03-05T09:30:43;17.58;;;13.82;;
40154;SDS011;25875;48.202;16.334;2023-03-05T09:33:11;20.83;;;15.05;;
40154;SDS011;25875;48.202;16.334;2023-03-05T09:35:38;18.65;;;13.82;;
40154;SDS011;25875;48.202;16.334;2023-03-05T09:38:05;19.10;;;15.93;;
40154;SDS011;25875;48.202;16.334;2023-03-05T09:40:35;18.23;;;13.43;;
40154;SDS011;25875;48.202;16.334;2023-03-05T09:43:10;17.52;;;13.85;;
40154;SDS011;25875;48.202;16.334;2023-03-05T09:45:55;19.60;;;14.60;;
40154;SDS011;25875;48.202;16.334;2023-03-05T09:48:36;17.33;;;13.30;;
40154;SDS011;25875;48.202;16.334;2023-03-05T09:51:15;18.58;;;13.88;;
40154;SDS011;25875;48.202;16.334;2023-03-05T09:53:49;18.67;;;13.10;;
40154;SDS011;25875;48.202;16.334;2023-03-05T09:56:23;19.67;;;13.32;;
40154;SDS011;25875;48.202;16.334;2023-03-05T09:58:54;19.75;;;13.98;;
40154;SDS011;25875;48.202;16.334;2023-03-05T10:01:26;16.42;;;12.02;;
40154;SDS011;25875;48.202;16.334;2023-03-05T10:04:00;17.67;;;14.43;;
40154;SDS011;25875;48.202;16.334;2023-03-05T10:06:33;18.02;;;14.57;;
40154;SDS011;25875;48.202;16.334;2023-03-05T10:09:03;18.85;;;15.30;;
40154;SDS011;25875;48.202;16.334;2023-03-05T10:11:39;18.58;;;13.98;;
40154;SDS011;25875;48.202;16.334;2023-03-05T10:14:12;19.52;;;14.75;;
40154;SDS011;25875;48.202;16.334;2023-03-05T10:17:01;19.05;;;14.30;;
40154;SDS011;25875;48.202;16.334;2023-03-05T10:19:52;19.67;;;14.18;;
40154;SDS011;25875;48.202;16.334;2023-03-05T10:22:29;19.90;;;14.45;;
40154;SDS011;25875;48.202;16.334;2023-03-05T10:25:05;17.27;;;13.73;;
40154;SDS011;25875;48.202;16.334;2023-03-05T10:27:42;18.10;;;13.57;;
40154;SDS011;25875;48.202;16.334;2023-03-05T10:30:29;19.23;;;13.82;;
40154;SDS011;25875;48.202;16.334;2023-03-05T10:33:11;19.83;;;15.65;;
40154;SDS011;25875;48.202;16.334;2023-03-05T10:38:49;17.15;;;14.00;;
40154;SDS011;25875;48.202;16.334;2023-03-05T10:41:54;17.83;;;13.35;;
40154;SDS011;25875;48.202;16.334;2023-03-05T10:44:32;19.10;;;13.73;;
40154;SDS011;25875;48.202;16.334;2023-03-05T10:47:06;20.00;;;15.05;;
40154;SDS011;25875;48.202;16.334;2023-03-05T10:49:42;18.98;;;13.35;;
40154;SDS011;25875;48.202;16.334;2023-03-05T10:52:16;20.60;;;14.50;;
40154;SDS011;25875;48.202;16.334;2023-03-05T10:54:48;18.65;;;14.70;;
40154;SDS011;25875;48.202;16.334;2023-03-05T10:57:17;17.50;;;13.55;;
40154;SDS011;25875;48.202;16.334;2023-03-05T10:59:48;17.77;;;14.75;;
40154;SDS011;25875;48.202;16.334;2023-03-05T11:02:17;20.23;;;14.23;;
40154;SDS011;25875;48.202;16.334;2023-03-05T11:04:46;16.05;;;13.18;;
40154;SDS011;25875;48.202;16.334;2023-03-05T11:07:30;20.30;;;15.32;;
40154;SDS011;25875;48.202;16.334;2023-03-05T11:10:09;16.88;;;12.60;;
40154;SDS011;25875;48.202;16.334;2023-03-05T11:12:41;19.25;;;14.32;;
40154;SDS011;25875;48.202;16.334;2023-03-05T11:15:26;17.63;;;14.45;;
40154;SDS011;25875;48.202;16.334;2023-03-05T11:20:49;19.15;;;15.05;;
40154;SDS011;25875;48.202;16.334;2023-03-05T11:23:17;18.05;;;14.13;;
40154;SDS011;25875;48.202;16.334;2023-03-05T11:25:56;19.63;;;15.07;;
40154;SDS011;25875;48.202;16.334;2023-03-05T11:28:28;19.52;;;15.10;;
40154;SDS011;25875;48.202;16.334;2023-03-05T11:31:00;19.52;;;14.88;;
40154;SDS011;25875;48.202;16.334;2023-03-05T11:33:31;19.90;;;14.18;;
40154;SDS011;25875;48.202;16.334;2023-03-05T11:36:10;20.55;;;15.20;;
40154;SDS011;25875;48.202;16.334;2023-03-05T11:38:55;17.98;;;13.68;;
40154;SDS011;25875;48.202;16.334;2023-03-05T11:44:10;21.37;;;14.43;;
40154;SDS011;25875;48.202;16.334;2023-03-05T11:46:41;18.15;;;13.48;;
40154;SDS011;25875;48.202;16.334;2023-03-05T11:49:14;19.77;;;15.00;;
40154;SDS011;25875;48.202;16.334;2023-03-05T11:51:44;19.90;;;13.65;;
40154;SDS011;25875;48.202;16.334;2023-03-05T11:54:20;19.98;;;14.65;;
40154;SDS011;25875;48.202;16.334;2023-03-05T11:56:55;20.38;;;14.95;;
40154;SDS011;25875;48.202;16.334;2023-03-05T11:59:23;19.33;;;14.38;;
40154;SDS011;25875;48.202;16.334;2023-03-05T12:01:54;18.45;;;14.48;;
40154;SDS011;25875;48.202;16.334;2023-03-05T12:04:23;19.85;;;15.13;;
40154;SDS011;25875;48.202;16.334;2023-03-05T12:06:51;19.80;;;14.02;;
40154;SDS011;25875;48.202;16.334;2023-03-05T12:09:23;19.85;;;13.23;;
40154;SDS011;25875;48.202;16.334;2023-03-05T12:12:00;16.30;;;12.93;;
40154;SDS011;25875;48.202;16.334;2023-03-05T12:14:35;17.08;;;13.80;;
40154;SDS011;25875;48.202;16.334;2023-03-05T12:17:08;19.02;;;13.88;;
40154;SDS011;25875;48.202;16.334;2023-03-05T12:19:44;18.48;;;14.25;;
40154;SDS011;25875;48.202;16.334;2023-03-05T12:22:18;18.27;;;13.23;;
40154;SDS011;25875;48.202;16.334;2023-03-05T12:24:48;16.20;;;12.57;;
40154;SDS011;25875;48.202;16.334;2023-03-05T12:27:34;19.88;;;13.32;;
40154;SDS011;25875;48.202;16.334;2023-03-05T12:30:04;17.83;;;13.57;;
40154;SDS011;25875;48.202;16.334;2023-03-05T12:32:53;18.40;;;12.98;;
40154;SDS011;25875;48.202;16.334;2023-03-05T12:35:24;19.02;;;13.55;;
40154;SDS011;25875;48.202;16.334;2023-03-05T12:37:57;20.83;;;14.25;;
40154;SDS011;25875;48.202;16.334;2023-03-05T12:40:34;17.65;;;12.02;;
40154;SDS011;25875;48.202;16.334;2023-03-05T12:43:03;18.10;;;12.40;;
40154;SDS011;25875;48.202;16.334;2023-03-05T12:45:38;20.67;;;13.07;;
40154;SDS011;25875;48.202;16.334;2023-03-05T12:51:13;22.00;;;14.98;;
40154;SDS011;25875;48.202;16.334;2023-03-05T12:56:24;16.13;;;11.10;;
40154;SDS011;25875;48.202;16.334;2023-03-05T12:58:57;13.57;;;9.95;;
40154;SDS011;25875;48.202;16.334;2023-03-05T13:01:33;12.63;;;10.13;;
40154;SDS011;25875;48.202;16.334;2023-03-05T13:04:11;12.77;;;9.70;;
40154;SDS011;25875;48.202;16.334;2023-03-05T13:06:44;14.00;;;9.80;;
40154;SDS011;25875;48.202;16.334;2023-03-05T13:09:15;11.57;;;8.48;;
40154;SDS011;25875;48.202;16.334;2023-03-05T13:11:44;9.40;;;7.93;;
40154;SDS011;25875;48.202;16.334;2023-03-05T13:14:28;14.57;;;9.27;;
40154;SDS011;25875;48.202;16.334;2023-03-05T13:17:25;10.73;;;7.93;;
40154;SDS011;25875;48.202;16.334;2023-03-05T13:19:55;10.60;;;7.78;;
40154;SDS011;25875;48.202;16.334;2023-03-05T13:22:26;9.30;;;6.75;;
40154;SDS011;25875;48.202;16.334;2023-03-05T13:25:03;13.35;;;8.40;;
40154;SDS011;25875;48.202;16.334;2023-03-05T13:27:38;8.55;;;6.43;;
40154;SDS011;25875;48.202;16.334;2023-03-05T13:30:19;9.95;;;6.38;;
40154;SDS011;25875;48.202;16.334;2023-03-05T13:32:49;7.05;;;5.22;;
40154;SDS011;25875;48.202;16.334;2023-03-05T13:35:18;8.85;;;5.55;;
40154;SDS011;25875;48.202;16.334;2023-03-05T13:37:47;7.18;;;5.95;;
40154;SDS011;25875;48.202;16.334;2023-03-05T13:40:18;10.25;;;6.70;;
40154;SDS011;25875;48.202;16.334;2023-03-05T13:42:48;9.05;;;6.18;;
40154;SDS011;25875;48.202;16.334;2023-03-05T13:45:23;8.98;;;6.53;;
40154;SDS011;25875;48.202;16.334;2023-03-05T13:47:54;8.18;;;6.03;;
40154;SDS011;25875;48.202;16.334;2023-03-05T13:50:25;7.63;;;5.85;;
40154;SDS011;25875;48.202;16.334;2023-03-05T13:52:59;7.28;;;5.50;;
40154;SDS011;25875;48.202;16.334;2023-03-05T13:55:42;6.75;;;5.25;;
40154;SDS011;25875;48.202;16.334;2023-03-05T14:01:39;6.63;;;5.10;;
40154;SDS011;25875;48.202;16.334;2023-03-05T14:04:17;8.55;;;5.18;;
40154;SDS011;25875;48.202;16.334;2023-03-05T14:06:47;6.68;;;5.00;;
40154;SDS011;25875;48.202;16.334;2023-03-05T14:09:18;7.40;;;5.60;;
40154;SDS011;25875;48.202;16.334;2023-03-05T14:11:51;11.15;;;7.97;;
40154;SDS011;25875;48.202;16.334;2023-03-05T14:14:25;11.20;;;6.97;;
40154;SDS011;25875;48.202;16.334;2023-03-05T14:16:56;8.68;;;5.85;;
40154;SDS011;25875;48.202;16.334;2023-03-05T14:19:48;7.63;;;5.15;;
40154;SDS011;25875;48.202;16.334;2023-03-05T14:22:28;9.60;;;6.72;;
40154;SDS011;25875;48.202;16.334;2023-03-05T14:24:57;8.68;;;5.82;;
40154;SDS011;25875;48.202;16.334;2023-03-05T14:27:27;8.63;;;5.68;;
40154;SDS011;25875;48.202;16.334;2023-03-05T14:29:59;7.72;;;6.55;;
40154;SDS011;25875;48.202;16.334;2023-03-05T14:32:30;8.07;;;5.97;;
40154;SDS011;25875;48.202;16.334;2023-03-05T14:35:00;9.38;;;6.07;;
40154;SDS011;25875;48.202;16.334;2023-03-05T14:37:32;7.10;;;5.07;;
40154;SDS011;25875;48.202;16.334;2023-03-05T14:40:03;9.10;;;5.47;;
40154;SDS011;25875;48.202;16.334;2023-03-05T14:42:34;9.40;;;5.57;;
40154;SDS011;25875;48.202;16.334;2023-03-05T14:45:09;7.93;;;6.18;;